sensor_id;sensor_type;location;lat;lon;timestamp;P1;durP1;ratioP1;P2;durP2;ratioP2
20294;SDS011;10306;52.128;5.208;2022-08-25T00:00:35;8.82;;;8.13;;
20294;SDS011;10306;52.128;5.208;2022-08-25T00:03:01;9.48;;;8.68;;
20294;SDS011;10306;52.128;5.208;2022-08-25T00:05:28;10.27;;;8.32;;
20294;SDS011;10306;52.128;5.208;2022-08-25T00:07:55;9.68;;;8.90;;
20294;SDS011;10306;52.128;5.208;2022-08-25T00:10:21;9.68;;;8.73;;
20294;SDS011;10306;52.128;5.208;2022-08-25T00:12:47;8.90;;;8.20;;
20294;SDS011;10306;52.128;5.208;2022-08-25T00:15:13;9.85;;;9.02;;
20294;SDS011;10306;52.128;5.208;2022-08-25T00:17:39;9.25;;;8.60;;
20294;SDS011;10306;52.128;5.208;2022-08-25T00:20:05;10.30;;;9.43;;
20294;SDS011;10306;52.128;5.208;2022-08-25T00:22:33;9.30;;;8.50;;
20294;SDS011;10306;52.128;5.208;2022-08-25T00:24:59;9.73;;;9.02;;
20294;SDS011;10306;52.128;5.208;2022-08-25T00:27:25;9.85;;;9.15;;
20294;SDS011;10306;52.128;5.208;2022-08-25T00:29:52;9.82;;;9.02;;
20294;SDS011;10306;52.128;5.208;2022-08-25T00:32:18;9.68;;;8.80;;
20294;SDS011;10306;52.128;5.208;2022-08-25T00:34:44;10.32;;;8.25;;
20294;SDS011;10306;52.128;5.208;2022-08-25T00:37:10;9.55;;;8.85;;
20294;SDS011;10306;52.128;5.208;2022-08-25T00:39:37;9.82;;;8.82;;
20294;SDS011;10306;52.128;5.208;2022-08-25T00:42:04;9.75;;;8.95;;
20294;SDS011;10306;52.128;5.208;2022-08-25T00:44:30;10.10;;;9.27;;
20294;SDS011;10306;52.128;5.208;2022-08-25T00:46:57;10.25;;;9.23;;
20294;SDS011;10306;52.128;5.208;2022-08-25T00:49:26;8.98;;;8.38;;
20294;SDS011;10306;52.128;5.208;2022-08-25T00:52:15;9.90;;;9.05;;
20294;SDS011;10306;52.128;5.208;2022-08-25T00:54:41;10.20;;;9.43;;
20294;SDS011;10306;52.128;5.208;2022-08-25T00:57:10;10.82;;;9.98;;
20294;SDS011;10306;52.128;5.208;2022-08-25T00:59:36;11.18;;;10.27;;
20294;SDS011;10306;52.128;5.208;2022-08-25T01:02:04;11.20;;;10.30;;
20294;SDS011;10306;52.128;5.208;2022-08-25T01:04:31;10.43;;;9.70;;
20294;SDS011;10306;52.128;5.208;2022-08-25T01:06:57;11.77;;;10.68;;
20294;SDS011;10306;52.128;5.208;2022-08-25T01:09:24;11.65;;;10.65;;
20294;SDS011;10306;52.128;5.208;2022-08-25T01:11:50;11.50;;;10.45;;
20294;SDS011;10306;52.128;5.208;2022-08-25T01:14:18;11.90;;;10.88;;
20294;SDS011;10306;52.128;5.208;2022-08-25T01:16:44;12.05;;;10.98;;
20294;SDS011;10306;52.128;5.208;2022-08-25T01:19:12;12.32;;;11.10;;
20294;SDS011;10306;52.128;5.208;2022-08-25T01:21:39;12.18;;;11.18;;
20294;SDS011;10306;52.128;5.208;2022-08-25T01:24:06;11.98;;;11.07;;
20294;SDS011;10306;52.128;5.208;2022-08-25T01:26:33;12.63;;;11.63;;
20294;SDS011;10306;52.128;5.208;2022-08-25T01:29:00;11.50;;;10.40;;
20294;SDS011;10306;52.128;5.208;2022-08-25T01:31:45;12.05;;;10.88;;
20294;SDS011;10306;52.128;5.208;2022-08-25T01:34:12;12.27;;;11.20;;
20294;SDS011;10306;52.128;5.208;2022-08-25T01:36:38;11.50;;;10.57;;
20294;SDS011;10306;52.128;5.208;2022-08-25T01:39:05;11.68;;;10.77;;
20294;SDS011;10306;52.128;5.208;2022-08-25T01:44:16;11.52;;;10.55;;
20294;SDS011;10306;52.128;5.208;2022-08-25T01:46:42;11.02;;;9.93;;
20294;SDS011;10306;52.128;5.208;2022-08-25T01:49:08;11.00;;;10.07;;
20294;SDS011;10306;52.128;5.208;2022-08-25T01:51:46;10.77;;;9.98;;
20294;SDS011;10306;52.128;5.208;2022-08-25T01:54:13;10.95;;;10.15;;
20294;SDS011;10306;52.128;5.208;2022-08-25T01:56:39;10.40;;;9.60;;
20294;SDS011;10306;52.128;5.208;2022-08-25T01:59:05;10.82;;;9.95;;
20294;SDS011;10306;52.128;5.208;2022-08-25T02:01:31;10.20;;;9.50;;
20294;SDS011;10306;52.128;5.208;2022-08-25T02:03:57;9.73;;;8.98;;
20294;SDS011;10306;52.128;5.208;2022-08-25T02:06:24;9.40;;;8.80;;
20294;SDS011;10306;52.128;5.208;2022-08-25T02:08:52;9.68;;;8.90;;
20294;SDS011;10306;52.128;5.208;2022-08-25T02:11:19;8.43;;;7.88;;
20294;SDS011;10306;52.128;5.208;2022-08-25T02:13:46;9.43;;;8.45;;
20294;SDS011;10306;52.128;5.208;2022-08-25T02:16:14;8.15;;;7.55;;
20294;SDS011;10306;52.128;5.208;2022-08-25T02:18:42;7.72;;;7.25;;
20294;SDS011;10306;52.128;5.208;2022-08-25T02:21:09;7.90;;;7.30;;
20294;SDS011;10306;52.128;5.208;2022-08-25T02:23:35;7.38;;;6.90;;
20294;SDS011;10306;52.128;5.208;2022-08-25T02:26:01;7.80;;;7.35;;
20294;SDS011;10306;52.128;5.208;2022-08-25T02:28:27;7.85;;;7.10;;
20294;SDS011;10306;52.128;5.208;2022-08-25T02:30:53;8.18;;;7.68;;
20294;SDS011;10306;52.128;5.208;2022-08-25T02:33:19;7.50;;;7.10;;
20294;SDS011;10306;52.128;5.208;2022-08-25T02:35:46;7.30;;;6.90;;
20294;SDS011;10306;52.128;5.208;2022-08-25T02:38:12;7.28;;;6.68;;
20294;SDS011;10306;52.128;5.208;2022-08-25T02:40:38;7.00;;;6.70;;
20294;SDS011;10306;52.128;5.208;2022-08-25T02:43:04;7.63;;;7.22;;
20294;SDS011;10306;52.128;5.208;2022-08-25T02:45:30;6.82;;;6.40;;
20294;SDS011;10306;52.128;5.208;2022-08-25T02:47:56;6.80;;;6.40;;
20294;SDS011;10306;52.128;5.208;2022-08-25T02:50:22;6.78;;;6.38;;
20294;SDS011;10306;52.128;5.208;2022-08-25T02:52:48;6.63;;;6.22;;
20294;SDS011;10306;52.128;5.208;2022-08-25T02:55:16;6.50;;;6.05;;
20294;SDS011;10306;52.128;5.208;2022-08-25T02:57:42;6.78;;;6.25;;
20294;SDS011;10306;52.128;5.208;2022-08-25T03:00:09;6.63;;;6.22;;
20294;SDS011;10306;52.128;5.208;2022-08-25T03:02:36;6.65;;;6.22;;
20294;SDS011;10306;52.128;5.208;2022-08-25T03:05:02;5.53;;;5.15;;
20294;SDS011;10306;52.128;5.208;2022-08-25T03:07:28;6.20;;;5.95;;
20294;SDS011;10306;52.128;5.208;2022-08-25T03:09:54;6.43;;;6.13;;
20294;SDS011;10306;52.128;5.208;2022-08-25T03:12:20;6.45;;;6.00;;
20294;SDS011;10306;52.128;5.208;2022-08-25T03:14:47;6.20;;;5.80;;
20294;SDS011;10306;52.128;5.208;2022-08-25T03:17:13;5.22;;;4.95;;
20294;SDS011;10306;52.128;5.208;2022-08-25T03:19:39;5.57;;;5.28;;
20294;SDS011;10306;52.128;5.208;2022-08-25T03:22:04;6.55;;;5.60;;
20294;SDS011;10306;52.128;5.208;2022-08-25T03:24:31;5.68;;;5.35;;
20294;SDS011;10306;52.128;5.208;2022-08-25T03:26:57;7.28;;;5.00;;
20294;SDS011;10306;52.128;5.208;2022-08-25T03:29:24;5.35;;;5.05;;
20294;SDS011;10306;52.128;5.208;2022-08-25T03:31:51;7.78;;;5.50;;
20294;SDS011;10306;52.128;5.208;2022-08-25T03:34:19;5.13;;;4.80;;
20294;SDS011;10306;52.128;5.208;2022-08-25T03:36:46;5.15;;;4.82;;
20294;SDS011;10306;52.128;5.208;2022-08-25T03:39:13;5.05;;;4.82;;
20294;SDS011;10306;52.128;5.208;2022-08-25T03:41:39;6.00;;;5.43;;
20294;SDS011;10306;52.128;5.208;2022-08-25T03:44:06;4.90;;;4.70;;
20294;SDS011;10306;52.128;5.208;2022-08-25T03:46:36;5.18;;;4.88;;
20294;SDS011;10306;52.128;5.208;2022-08-25T03:49:03;5.10;;;4.85;;
20294;SDS011;10306;52.128;5.208;2022-08-25T03:51:34;5.55;;;5.13;;
20294;SDS011;10306;52.128;5.208;2022-08-25T03:54:00;5.07;;;4.88;;
20294;SDS011;10306;52.128;5.208;2022-08-25T03:56:26;5.07;;;4.65;;
20294;SDS011;10306;52.128;5.208;2022-08-25T03:58:52;5.22;;;4.97;;
20294;SDS011;10306;52.128;5.208;2022-08-25T04:01:18;5.25;;;4.90;;
20294;SDS011;10306;52.128;5.208;2022-08-25T04:03:45;4.75;;;4.50;;
20294;SDS011;10306;52.128;5.208;2022-08-25T04:06:11;4.57;;;4.38;;
20294;SDS011;10306;52.128;5.208;2022-08-25T04:08:37;5.05;;;4.65;;
20294;SDS011;10306;52.128;5.208;2022-08-25T04:11:14;5.10;;;4.80;;
20294;SDS011;10306;52.128;5.208;2022-08-25T04:13:41;5.13;;;4.82;;
20294;SDS011;10306;52.128;5.208;2022-08-25T04:16:15;5.30;;;4.80;;
20294;SDS011;10306;52.128;5.208;2022-08-25T04:18:42;5.43;;;4.78;;
20294;SDS011;10306;52.128;5.208;2022-08-25T04:21:09;4.55;;;4.35;;
20294;SDS011;10306;52.128;5.208;2022-08-25T04:23:36;4.75;;;4.32;;
20294;SDS011;10306;52.128;5.208;2022-08-25T04:26:13;4.55;;;4.25;;
20294;SDS011;10306;52.128;5.208;2022-08-25T04:28:39;4.50;;;4.20;;
20294;SDS011;10306;52.128;5.208;2022-08-25T04:31:09;4.68;;;4.47;;
20294;SDS011;10306;52.128;5.208;2022-08-25T04:33:36;4.80;;;4.50;;
20294;SDS011;10306;52.128;5.208;2022-08-25T04:36:03;4.47;;;4.18;;
20294;SDS011;10306;52.128;5.208;2022-08-25T04:38:29;5.07;;;4.53;;
20294;SDS011;10306;52.128;5.208;2022-08-25T04:40:59;4.82;;;4.57;;
20294;SDS011;10306;52.128;5.208;2022-08-25T04:43:25;4.28;;;4.07;;
20294;SDS011;10306;52.128;5.208;2022-08-25T04:45:52;4.75;;;4.45;;
20294;SDS011;10306;52.128;5.208;2022-08-25T04:48:18;4.50;;;4.20;;
20294;SDS011;10306;52.128;5.208;2022-08-25T04:50:44;4.10;;;3.90;;
20294;SDS011;10306;52.128;5.208;2022-08-25T04:53:10;4.70;;;4.32;;
20294;SDS011;10306;52.128;5.208;2022-08-25T04:55:40;4.88;;;4.47;;
20294;SDS011;10306;52.128;5.208;2022-08-25T04:58:06;4.60;;;4.40;;
20294;SDS011;10306;52.128;5.208;2022-08-25T05:00:33;4.18;;;3.95;;
20294;SDS011;10306;52.128;5.208;2022-08-25T05:02:59;4.47;;;4.22;;
20294;SDS011;10306;52.128;5.208;2022-08-25T05:05:25;4.57;;;4.25;;
20294;SDS011;10306;52.128;5.208;2022-08-25T05:07:51;5.50;;;4.47;;
20294;SDS011;10306;52.128;5.208;2022-08-25T05:10:18;4.97;;;4.55;;
20294;SDS011;10306;52.128;5.208;2022-08-25T05:12:44;4.32;;;4.13;;
20294;SDS011;10306;52.128;5.208;2022-08-25T05:15:10;5.43;;;4.80;;
20294;SDS011;10306;52.128;5.208;2022-08-25T05:18:08;5.30;;;4.63;;
20294;SDS011;10306;52.128;5.208;2022-08-25T05:20:35;4.57;;;4.38;;
20294;SDS011;10306;52.128;5.208;2022-08-25T05:23:01;4.20;;;3.90;;
20294;SDS011;10306;52.128;5.208;2022-08-25T05:25:27;4.80;;;4.50;;
20294;SDS011;10306;52.128;5.208;2022-08-25T05:27:53;5.07;;;4.68;;
20294;SDS011;10306;52.128;5.208;2022-08-25T05:30:19;6.13;;;5.03;;
20294;SDS011;10306;52.128;5.208;2022-08-25T05:32:45;5.20;;;4.80;;
20294;SDS011;10306;52.128;5.208;2022-08-25T05:35:11;4.78;;;4.47;;
20294;SDS011;10306;52.128;5.208;2022-08-25T05:37:37;6.22;;;4.68;;
20294;SDS011;10306;52.128;5.208;2022-08-25T05:40:06;5.00;;;4.68;;
20294;SDS011;10306;52.128;5.208;2022-08-25T05:42:32;5.07;;;4.78;;
20294;SDS011;10306;52.128;5.208;2022-08-25T05:44:58;5.47;;;4.63;;
20294;SDS011;10306;52.128;5.208;2022-08-25T05:47:25;6.22;;;4.47;;
20294;SDS011;10306;52.128;5.208;2022-08-25T05:49:51;6.32;;;5.18;;
20294;SDS011;10306;52.128;5.208;2022-08-25T05:52:16;4.53;;;4.20;;
20294;SDS011;10306;52.128;5.208;2022-08-25T05:54:43;4.88;;;4.47;;
20294;SDS011;10306;52.128;5.208;2022-08-25T05:57:09;4.25;;;4.00;;
20294;SDS011;10306;52.128;5.208;2022-08-25T05:59:35;5.60;;;4.10;;
20294;SDS011;10306;52.128;5.208;2022-08-25T06:02:01;4.45;;;4.05;;
20294;SDS011;10306;52.128;5.208;2022-08-25T06:04:46;4.10;;;3.88;;
20294;SDS011;10306;52.128;5.208;2022-08-25T06:07:11;4.40;;;4.10;;
20294;SDS011;10306;52.128;5.208;2022-08-25T06:09:38;3.83;;;3.50;;
20294;SDS011;10306;52.128;5.208;2022-08-25T06:12:04;4.60;;;3.55;;
20294;SDS011;10306;52.128;5.208;2022-08-25T06:14:32;3.60;;;3.40;;
20294;SDS011;10306;52.128;5.208;2022-08-25T06:16:58;3.83;;;3.63;;
20294;SDS011;10306;52.128;5.208;2022-08-25T06:19:25;3.90;;;3.70;;
20294;SDS011;10306;52.128;5.208;2022-08-25T06:21:54;4.40;;;4.05;;
20294;SDS011;10306;52.128;5.208;2022-08-25T06:24:20;3.85;;;3.55;;
20294;SDS011;10306;52.128;5.208;2022-08-25T06:26:47;5.18;;;3.53;;
20294;SDS011;10306;52.128;5.208;2022-08-25T06:29:13;3.60;;;3.40;;
20294;SDS011;10306;52.128;5.208;2022-08-25T06:31:38;8.77;;;3.70;;
20294;SDS011;10306;52.128;5.208;2022-08-25T06:34:05;3.33;;;3.17;;
20294;SDS011;10306;52.128;5.208;2022-08-25T06:36:31;3.70;;;3.50;;
20294;SDS011;10306;52.128;5.208;2022-08-25T06:38:58;3.65;;;3.45;;
20294;SDS011;10306;52.128;5.208;2022-08-25T06:41:24;3.10;;;3.00;;
20294;SDS011;10306;52.128;5.208;2022-08-25T06:43:50;3.67;;;3.38;;
20294;SDS011;10306;52.128;5.208;2022-08-25T06:46:21;3.30;;;3.13;;
20294;SDS011;10306;52.128;5.208;2022-08-25T06:48:47;3.35;;;3.15;;
20294;SDS011;10306;52.128;5.208;2022-08-25T06:51:14;3.35;;;3.10;;
20294;SDS011;10306;52.128;5.208;2022-08-25T06:53:42;7.93;;;2.88;;
20294;SDS011;10306;52.128;5.208;2022-08-25T06:56:08;2.90;;;2.70;;
20294;SDS011;10306;52.128;5.208;2022-08-25T06:58:34;3.00;;;2.75;;
20294;SDS011;10306;52.128;5.208;2022-08-25T07:01:07;3.13;;;3.03;;
20294;SDS011;10306;52.128;5.208;2022-08-25T07:03:33;10.02;;;3.13;;
20294;SDS011;10306;52.128;5.208;2022-08-25T07:05:59;2.95;;;2.75;;
20294;SDS011;10306;52.128;5.208;2022-08-25T07:08:25;2.60;;;2.50;;
20294;SDS011;10306;52.128;5.208;2022-08-25T07:10:51;3.58;;;3.38;;
20294;SDS011;10306;52.128;5.208;2022-08-25T07:13:16;3.10;;;2.88;;
20294;SDS011;10306;52.128;5.208;2022-08-25T07:15:43;2.85;;;2.75;;
20294;SDS011;10306;52.128;5.208;2022-08-25T07:18:09;2.70;;;2.60;;
20294;SDS011;10306;52.128;5.208;2022-08-25T07:20:38;3.05;;;2.88;;
20294;SDS011;10306;52.128;5.208;2022-08-25T07:23:05;2.90;;;2.70;;
20294;SDS011;10306;52.128;5.208;2022-08-25T07:25:31;2.80;;;2.60;;
20294;SDS011;10306;52.128;5.208;2022-08-25T07:27:57;2.80;;;2.70;;
20294;SDS011;10306;52.128;5.208;2022-08-25T07:30:23;2.63;;;2.53;;
20294;SDS011;10306;52.128;5.208;2022-08-25T07:32:49;2.45;;;2.35;;
20294;SDS011;10306;52.128;5.208;2022-08-25T07:35:15;2.30;;;2.20;;
20294;SDS011;10306;52.128;5.208;2022-08-25T07:37:43;2.78;;;2.58;;
20294;SDS011;10306;52.128;5.208;2022-08-25T07:40:20;3.40;;;2.50;;
20294;SDS011;10306;52.128;5.208;2022-08-25T07:42:50;2.88;;;2.78;;
20294;SDS011;10306;52.128;5.208;2022-08-25T07:45:17;3.45;;;3.17;;
20294;SDS011;10306;52.128;5.208;2022-08-25T07:47:44;3.20;;;2.60;;
20294;SDS011;10306;52.128;5.208;2022-08-25T07:50:10;3.08;;;2.47;;
20294;SDS011;10306;52.128;5.208;2022-08-25T07:52:38;2.60;;;2.50;;
20294;SDS011;10306;52.128;5.208;2022-08-25T07:55:04;2.63;;;2.50;;
20294;SDS011;10306;52.128;5.208;2022-08-25T07:57:31;2.88;;;2.65;;
20294;SDS011;10306;52.128;5.208;2022-08-25T07:59:57;3.03;;;2.72;;
20294;SDS011;10306;52.128;5.208;2022-08-25T08:02:24;4.38;;;2.63;;
20294;SDS011;10306;52.128;5.208;2022-08-25T08:04:50;4.50;;;3.20;;
20294;SDS011;10306;52.128;5.208;2022-08-25T08:07:20;3.90;;;3.22;;
20294;SDS011;10306;52.128;5.208;2022-08-25T08:09:47;2.90;;;2.53;;
20294;SDS011;10306;52.128;5.208;2022-08-25T08:12:13;2.30;;;2.20;;
20294;SDS011;10306;52.128;5.208;2022-08-25T08:14:39;2.60;;;2.50;;
20294;SDS011;10306;52.128;5.208;2022-08-25T08:17:06;4.10;;;2.50;;
20294;SDS011;10306;52.128;5.208;2022-08-25T08:19:32;3.40;;;2.55;;
20294;SDS011;10306;52.128;5.208;2022-08-25T08:21:58;2.92;;;2.50;;
20294;SDS011;10306;52.128;5.208;2022-08-25T08:24:24;3.70;;;2.42;;
20294;SDS011;10306;52.128;5.208;2022-08-25T08:26:50;2.95;;;2.75;;
20294;SDS011;10306;52.128;5.208;2022-08-25T08:29:16;2.85;;;2.70;;
20294;SDS011;10306;52.128;5.208;2022-08-25T08:31:44;2.60;;;2.40;;
20294;SDS011;10306;52.128;5.208;2022-08-25T08:34:10;2.97;;;2.78;;
20294;SDS011;10306;52.128;5.208;2022-08-25T08:36:36;2.67;;;2.58;;
20294;SDS011;10306;52.128;5.208;2022-08-25T08:39:02;2.47;;;2.30;;
20294;SDS011;10306;52.128;5.208;2022-08-25T08:44:26;3.13;;;2.65;;
20294;SDS011;10306;52.128;5.208;2022-08-25T08:49:45;2.80;;;2.70;;
20294;SDS011;10306;52.128;5.208;2022-08-25T08:52:15;2.85;;;2.65;;
20294;SDS011;10306;52.128;5.208;2022-08-25T08:54:41;3.28;;;2.38;;
20294;SDS011;10306;52.128;5.208;2022-08-25T08:57:17;4.18;;;2.65;;
20294;SDS011;10306;52.128;5.208;2022-08-25T08:59:51;2.60;;;2.50;;
20294;SDS011;10306;52.128;5.208;2022-08-25T09:02:22;2.80;;;2.70;;
20294;SDS011;10306;52.128;5.208;2022-08-25T09:04:52;2.40;;;2.30;;
20294;SDS011;10306;52.128;5.208;2022-08-25T09:07:28;3.47;;;3.10;;
20294;SDS011;10306;52.128;5.208;2022-08-25T09:09:55;2.80;;;2.67;;
20294;SDS011;10306;52.128;5.208;2022-08-25T09:15:07;2.50;;;2.40;;
20294;SDS011;10306;52.128;5.208;2022-08-25T09:25:16;2.60;;;2.50;;
20294;SDS011;10306;52.128;5.208;2022-08-25T09:30:11;3.10;;;2.63;;
20294;SDS011;10306;52.128;5.208;2022-08-25T09:32:43;2.50;;;2.40;;
20294;SDS011;10306;52.128;5.208;2022-08-25T09:35:15;3.03;;;2.20;;
20294;SDS011;10306;52.128;5.208;2022-08-25T09:37:42;2.60;;;2.40;;
20294;SDS011;10306;52.128;5.208;2022-08-25T09:40:08;2.42;;;2.33;;
20294;SDS011;10306;52.128;5.208;2022-08-25T09:42:46;2.75;;;2.58;;
20294;SDS011;10306;52.128;5.208;2022-08-25T09:45:13;2.55;;;2.33;;
20294;SDS011;10306;52.128;5.208;2022-08-25T09:47:43;2.55;;;2.40;;
20294;SDS011;10306;52.128;5.208;2022-08-25T09:50:16;2.80;;;2.60;;
20294;SDS011;10306;52.128;5.208;2022-08-25T09:52:42;2.60;;;2.40;;
20294;SDS011;10306;52.128;5.208;2022-08-25T10:00:24;2.78;;;2.67;;
20294;SDS011;10306;52.128;5.208;2022-08-25T10:10:56;1.60;;;1.60;;
20294;SDS011;10306;52.128;5.208;2022-08-25T10:13:32;2.22;;;2.13;;
20294;SDS011;10306;52.128;5.208;2022-08-25T10:16:31;2.08;;;2.00;;
20294;SDS011;10306;52.128;5.208;2022-08-25T10:19:10;2.08;;;1.98;;
20294;SDS011;10306;52.128;5.208;2022-08-25T10:21:38;4.10;;;2.00;;
20294;SDS011;10306;52.128;5.208;2022-08-25T10:24:04;2.30;;;2.20;;
20294;SDS011;10306;52.128;5.208;2022-08-25T10:29:25;1.83;;;1.80;;
20294;SDS011;10306;52.128;5.208;2022-08-25T10:31:58;2.13;;;1.90;;
20294;SDS011;10306;52.128;5.208;2022-08-25T10:34:30;3.22;;;1.95;;
20294;SDS011;10306;52.128;5.208;2022-08-25T10:37:03;2.33;;;1.83;;
20294;SDS011;10306;52.128;5.208;2022-08-25T10:39:37;2.20;;;2.00;;
20294;SDS011;10306;52.128;5.208;2022-08-25T10:42:19;2.05;;;2.05;;
20294;SDS011;10306;52.128;5.208;2022-08-25T10:44:51;1.77;;;1.67;;
20294;SDS011;10306;52.128;5.208;2022-08-25T10:47:47;5.38;;;2.03;;
20294;SDS011;10306;52.128;5.208;2022-08-25T10:53:13;1.60;;;1.60;;
20294;SDS011;10306;52.128;5.208;2022-08-25T10:55:45;2.00;;;2.00;;
20294;SDS011;10306;52.128;5.208;2022-08-25T10:58:25;2.42;;;2.08;;
20294;SDS011;10306;52.128;5.208;2022-08-25T11:01:06;2.00;;;1.80;;
20294;SDS011;10306;52.128;5.208;2022-08-25T11:03:43;7.47;;;1.60;;
20294;SDS011;10306;52.128;5.208;2022-08-25T11:06:13;1.88;;;1.77;;
20294;SDS011;10306;52.128;5.208;2022-08-25T11:08:44;1.58;;;1.58;;
20294;SDS011;10306;52.128;5.208;2022-08-25T11:11:19;2.00;;;1.75;;
20294;SDS011;10306;52.128;5.208;2022-08-25T11:13:53;2.63;;;1.50;;
20294;SDS011;10306;52.128;5.208;2022-08-25T11:16:21;1.42;;;1.33;;
20294;SDS011;10306;52.128;5.208;2022-08-25T11:21:19;1.60;;;1.50;;
20294;SDS011;10306;52.128;5.208;2022-08-25T11:23:49;2.10;;;2.00;;
20294;SDS011;10306;52.128;5.208;2022-08-25T11:26:19;2.50;;;1.75;;
20294;SDS011;10306;52.128;5.208;2022-08-25T11:29:02;1.65;;;1.48;;
20294;SDS011;10306;52.128;5.208;2022-08-25T11:31:29;1.50;;;1.50;;
20294;SDS011;10306;52.128;5.208;2022-08-25T11:33:55;1.45;;;1.45;;
20294;SDS011;10306;52.128;5.208;2022-08-25T11:38:55;2.53;;;1.67;;
20294;SDS011;10306;52.128;5.208;2022-08-25T11:46:35;2.30;;;2.20;;
20294;SDS011;10306;52.128;5.208;2022-08-25T11:51:45;2.40;;;2.20;;
20294;SDS011;10306;52.128;5.208;2022-08-25T12:02:02;2.63;;;2.28;;
20294;SDS011;10306;52.128;5.208;2022-08-25T12:04:35;2.20;;;2.10;;
20294;SDS011;10306;52.128;5.208;2022-08-25T12:10:21;2.63;;;2.25;;
20294;SDS011;10306;52.128;5.208;2022-08-25T12:15:13;4.20;;;1.98;;
20294;SDS011;10306;52.128;5.208;2022-08-25T12:17:40;2.22;;;2.10;;
20294;SDS011;10306;52.128;5.208;2022-08-25T12:20:06;2.35;;;2.25;;
20294;SDS011;10306;52.128;5.208;2022-08-25T12:25:00;2.00;;;1.90;;
20294;SDS011;10306;52.128;5.208;2022-08-25T12:30:13;2.38;;;2.22;;
20294;SDS011;10306;52.128;5.208;2022-08-25T12:35:26;1.98;;;1.88;;
20294;SDS011;10306;52.128;5.208;2022-08-25T12:37:54;1.83;;;1.83;;
20294;SDS011;10306;52.128;5.208;2022-08-25T12:40:24;2.55;;;2.13;;
20294;SDS011;10306;52.128;5.208;2022-08-25T12:42:59;1.70;;;1.60;;
20294;SDS011;10306;52.128;5.208;2022-08-25T12:45:36;5.80;;;2.08;;
20294;SDS011;10306;52.128;5.208;2022-08-25T12:50:47;2.00;;;1.90;;
20294;SDS011;10306;52.128;5.208;2022-08-25T12:56:02;1.60;;;1.60;;
20294;SDS011;10306;52.128;5.208;2022-08-25T12:58:49;1.55;;;1.55;;
20294;SDS011;10306;52.128;5.208;2022-08-25T13:01:25;1.73;;;1.73;;
20294;SDS011;10306;52.128;5.208;2022-08-25T13:06:35;1.80;;;1.70;;
20294;SDS011;10306;52.128;5.208;2022-08-25T13:11:31;2.63;;;1.80;;
20294;SDS011;10306;52.128;5.208;2022-08-25T13:14:06;1.75;;;1.60;;
20294;SDS011;10306;52.128;5.208;2022-08-25T13:16:37;1.63;;;1.63;;
20294;SDS011;10306;52.128;5.208;2022-08-25T13:19:04;1.70;;;1.60;;
20294;SDS011;10306;52.128;5.208;2022-08-25T13:21:37;1.80;;;1.70;;
20294;SDS011;10306;52.128;5.208;2022-08-25T13:24:25;1.70;;;1.70;;
20294;SDS011;10306;52.128;5.208;2022-08-25T13:26:51;1.60;;;1.60;;
20294;SDS011;10306;52.128;5.208;2022-08-25T13:29:19;1.63;;;1.63;;
20294;SDS011;10306;52.128;5.208;2022-08-25T13:32:06;1.70;;;1.70;;
20294;SDS011;10306;52.128;5.208;2022-08-25T13:34:34;1.70;;;1.70;;
20294;SDS011;10306;52.128;5.208;2022-08-25T13:37:05;2.28;;;2.10;;
20294;SDS011;10306;52.128;5.208;2022-08-25T13:40:05;1.90;;;1.90;;
20294;SDS011;10306;52.128;5.208;2022-08-25T13:42:32;2.20;;;2.10;;
20294;SDS011;10306;52.128;5.208;2022-08-25T13:44:58;1.83;;;1.83;;
20294;SDS011;10306;52.128;5.208;2022-08-25T13:47:36;1.92;;;1.83;;
20294;SDS011;10306;52.128;5.208;2022-08-25T13:52:42;1.70;;;1.70;;
20294;SDS011;10306;52.128;5.208;2022-08-25T13:55:10;1.60;;;1.60;;
20294;SDS011;10306;52.128;5.208;2022-08-25T13:57:40;2.10;;;2.10;;
20294;SDS011;10306;52.128;5.208;2022-08-25T14:00:08;2.08;;;1.98;;
20294;SDS011;10306;52.128;5.208;2022-08-25T14:02:44;2.10;;;2.00;;
20294;SDS011;10306;52.128;5.208;2022-08-25T14:05:11;2.80;;;2.55;;
20294;SDS011;10306;52.128;5.208;2022-08-25T14:07:37;4.35;;;2.10;;
20294;SDS011;10306;52.128;5.208;2022-08-25T14:10:06;2.20;;;2.00;;
20294;SDS011;10306;52.128;5.208;2022-08-25T14:12:37;2.40;;;2.20;;
20294;SDS011;10306;52.128;5.208;2022-08-25T14:17:36;2.28;;;2.17;;
20294;SDS011;10306;52.128;5.208;2022-08-25T14:20:03;1.90;;;1.90;;
20294;SDS011;10306;52.128;5.208;2022-08-25T14:22:29;1.98;;;1.98;;
20294;SDS011;10306;52.128;5.208;2022-08-25T14:24:55;3.15;;;2.05;;
20294;SDS011;10306;52.128;5.208;2022-08-25T14:27:21;2.13;;;2.05;;
20294;SDS011;10306;52.128;5.208;2022-08-25T14:29:47;2.13;;;1.92;;
20294;SDS011;10306;52.128;5.208;2022-08-25T14:32:14;2.20;;;2.10;;
20294;SDS011;10306;52.128;5.208;2022-08-25T14:34:41;2.05;;;2.00;;
20294;SDS011;10306;52.128;5.208;2022-08-25T14:37:08;2.20;;;2.10;;
20294;SDS011;10306;52.128;5.208;2022-08-25T14:39:36;2.50;;;2.30;;
20294;SDS011;10306;52.128;5.208;2022-08-25T14:42:02;2.53;;;2.42;;
20294;SDS011;10306;52.128;5.208;2022-08-25T14:44:28;2.40;;;2.20;;
20294;SDS011;10306;52.128;5.208;2022-08-25T14:46:54;2.30;;;2.20;;
20294;SDS011;10306;52.128;5.208;2022-08-25T14:49:25;2.47;;;2.33;;
20294;SDS011;10306;52.128;5.208;2022-08-25T14:51:56;2.30;;;2.20;;
20294;SDS011;10306;52.128;5.208;2022-08-25T14:54:24;2.38;;;2.28;;
20294;SDS011;10306;52.128;5.208;2022-08-25T14:56:51;2.30;;;2.20;;
20294;SDS011;10306;52.128;5.208;2022-08-25T14:59:17;2.20;;;2.10;;
20294;SDS011;10306;52.128;5.208;2022-08-25T15:01:43;2.20;;;2.10;;
20294;SDS011;10306;52.128;5.208;2022-08-25T15:04:10;2.42;;;2.33;;
20294;SDS011;10306;52.128;5.208;2022-08-25T15:06:38;2.17;;;2.08;;
20294;SDS011;10306;52.128;5.208;2022-08-25T15:09:06;2.50;;;2.40;;
20294;SDS011;10306;52.128;5.208;2022-08-25T15:11:34;2.47;;;2.38;;
20294;SDS011;10306;52.128;5.208;2022-08-25T15:14:01;2.30;;;2.20;;
20294;SDS011;10306;52.128;5.208;2022-08-25T15:16:28;2.38;;;2.15;;
20294;SDS011;10306;52.128;5.208;2022-08-25T15:18:54;2.42;;;2.20;;
20294;SDS011;10306;52.128;5.208;2022-08-25T15:21:21;2.40;;;2.30;;
20294;SDS011;10306;52.128;5.208;2022-08-25T15:23:47;2.72;;;2.53;;
20294;SDS011;10306;52.128;5.208;2022-08-25T15:26:13;3.50;;;2.50;;
20294;SDS011;10306;52.128;5.208;2022-08-25T15:28:40;2.30;;;2.20;;
20294;SDS011;10306;52.128;5.208;2022-08-25T15:31:07;3.85;;;2.40;;
20294;SDS011;10306;52.128;5.208;2022-08-25T15:33:33;2.60;;;2.50;;
20294;SDS011;10306;52.128;5.208;2022-08-25T15:35:59;2.42;;;2.30;;
20294;SDS011;10306;52.128;5.208;2022-08-25T15:38:25;2.30;;;2.20;;
20294;SDS011;10306;52.128;5.208;2022-08-25T15:40:51;2.63;;;2.53;;
20294;SDS011;10306;52.128;5.208;2022-08-25T15:43:16;3.53;;;2.28;;
20294;SDS011;10306;52.128;5.208;2022-08-25T15:45:42;2.25;;;2.22;;
20294;SDS011;10306;52.128;5.208;2022-08-25T15:48:08;2.28;;;2.17;;
20294;SDS011;10306;52.128;5.208;2022-08-25T15:50:34;2.78;;;2.65;;
20294;SDS011;10306;52.128;5.208;2022-08-25T15:53:00;2.72;;;2.50;;
20294;SDS011;10306;52.128;5.208;2022-08-25T15:55:26;2.10;;;2.10;;
20294;SDS011;10306;52.128;5.208;2022-08-25T15:57:52;2.15;;;2.05;;
20294;SDS011;10306;52.128;5.208;2022-08-25T16:00:18;2.70;;;2.42;;
20294;SDS011;10306;52.128;5.208;2022-08-25T16:02:44;2.63;;;2.50;;
20294;SDS011;10306;52.128;5.208;2022-08-25T16:05:10;2.42;;;2.33;;
20294;SDS011;10306;52.128;5.208;2022-08-25T16:07:36;3.42;;;3.33;;
20294;SDS011;10306;52.128;5.208;2022-08-25T16:10:02;3.03;;;2.83;;
20294;SDS011;10306;52.128;5.208;2022-08-25T16:12:29;3.70;;;3.60;;
20294;SDS011;10306;52.128;5.208;2022-08-25T16:14:55;2.55;;;2.45;;
20294;SDS011;10306;52.128;5.208;2022-08-25T16:17:21;2.45;;;2.35;;
20294;SDS011;10306;52.128;5.208;2022-08-25T16:19:47;3.78;;;2.72;;
20294;SDS011;10306;52.128;5.208;2022-08-25T16:22:13;3.10;;;2.80;;